Lohrville, Wisconsin
Current Conditions -  °F | °C
As of 11:56 AM on Saturday 20 Dec 2014 (Local Time) from KY50 Reporting Station
Unknown Precip Unknown Precip  
Wind Chill: 30°   Ceiling: 2700
Heat Index: 30°   Visibility: 5mi
Dew Point: 25°   Wind: 3mph
Humidity: 82%   Direction: NA
Pressure: 30.23"   Gusts: NA
Location:  44.0643°N, 89.0804°W
Report Text: KY50 201756Z AUTO VRB03KT 5SM UP OVC027 M01/M04 A3023 RMK AO2 TSNO 58007 60000 T10111038 11011 21038 OVC V BKN UPB02 P0000 SLP247
Loading
Personal Weather Stations






























Interactive Weather Map New forecast layout! Learn more

10-Day Weather Forecast

Advertisements
Track Severe Weather on mobile